createdAt,value
2022-10-08T00:00:51.328Z,12.94
2022-10-08T00:01:53.015Z,12.92
2022-10-08T00:02:54.649Z,12.94
2022-10-08T00:03:57.237Z,12.95
2022-10-08T00:04:58.797Z,12.91
2022-10-08T00:06:05.426Z,12.91
2022-10-08T00:07:07.717Z,12.92
2022-10-08T00:08:09.523Z,12.91
2022-10-08T00:09:11.093Z,12.91
2022-10-08T00:10:12.667Z,12.91
2022-10-08T00:11:16.591Z,12.88
2022-10-08T00:12:18.250Z,12.88
2022-10-08T00:13:20.003Z,12.88
2022-10-08T00:14:23.432Z,12.87
2022-10-08T00:15:25.049Z,12.84
2022-10-08T00:16:34.478Z,12.81
2022-10-08T00:17:36.150Z,12.84
2022-10-08T00:18:38.011Z,12.81
2022-10-08T00:19:39.551Z,12.83
2022-10-08T00:20:41.110Z,12.80
2022-10-08T00:21:44.108Z,12.80
2022-10-08T00:22:46.002Z,12.80
2022-10-08T00:23:48.419Z,12.78
2022-10-08T00:24:50.070Z,12.80
2022-10-08T00:25:51.647Z,12.78
2022-10-08T00:26:53.238Z,12.77
2022-10-08T00:27:54.776Z,12.77
2022-10-08T00:28:57.636Z,12.78
2022-10-08T00:29:59.261Z,12.77
2022-10-08T00:31:32.007Z,12.74
2022-10-08T00:32:33.659Z,12.73
2022-10-08T00:33:38.543Z,12.73
2022-10-08T00:34:40.131Z,12.73
2022-10-08T00:35:41.721Z,12.71
2022-10-08T00:36:43.519Z,12.69
2022-10-08T00:37:45.103Z,12.71
2022-10-08T00:38:46.698Z,12.65
2022-10-08T00:39:48.266Z,12.64
2022-10-08T00:40:49.827Z,12.65
2022-10-08T00:41:53.137Z,12.61
2022-10-08T00:42:54.718Z,12.63
2022-10-08T00:43:57.867Z,12.63
2022-10-08T00:45:00.424Z,12.61
2022-10-08T00:46:02.029Z,12.60
2022-10-08T00:47:03.676Z,12.56
2022-10-08T00:48:05.237Z,12.60
2022-10-08T00:49:13.709Z,12.58
2022-10-08T00:50:23.628Z,12.58
2022-10-08T00:51:25.467Z,12.60
2022-10-08T00:52:28.585Z,12.54
2022-10-08T00:53:30.410Z,12.56
2022-10-08T00:54:32.761Z,12.51
2022-10-08T00:55:34.733Z,12.51
2022-10-08T00:56:37.525Z,12.51
2022-10-08T00:57:39.832Z,12.50
2022-10-08T00:58:41.654Z,12.50
2022-10-08T00:59:43.217Z,12.50
2022-10-08T01:00:44.861Z,12.50
2022-10-08T01:01:46.719Z,12.48
2022-10-08T01:02:48.794Z,12.48
2022-10-08T01:03:50.725Z,12.47
2022-10-08T01:04:52.297Z,12.46
2022-10-08T01:05:59.005Z,12.44
2022-10-08T01:07:16.878Z,12.40
2022-10-08T01:08:25.967Z,12.44
2022-10-08T01:09:42.335Z,12.40
2022-10-08T01:11:05.548Z,12.41
2022-10-08T01:12:31.910Z,12.37
2022-10-08T01:13:38.048Z,12.38
2022-10-08T01:14:39.606Z,12.38
2022-10-08T01:16:22.330Z,12.36
2022-10-08T01:17:48.931Z,12.33
2022-10-08T01:18:56.515Z,12.33
2022-10-08T01:20:33.718Z,12.34
2022-10-08T01:21:47.553Z,12.34
2022-10-08T01:23:07.382Z,12.29
2022-10-08T01:24:48.013Z,12.29
2022-10-08T01:26:11.155Z,12.23
2022-10-08T01:27:26.201Z,12.25
2022-10-08T01:28:30.754Z,12.25
2022-10-08T01:29:42.464Z,12.23
2022-10-08T01:31:15.404Z,12.25
2022-10-08T01:32:19.661Z,12.23
2022-10-08T01:33:38.120Z,12.19
2022-10-08T01:34:44.716Z,12.22
2022-10-08T01:35:48.398Z,12.16
2022-10-08T01:36:51.058Z,12.20
2022-10-08T01:37:56.122Z,12.20
2022-10-08T01:39:01.338Z,12.23
2022-10-08T01:40:04.649Z,12.26
2022-10-08T01:41:07.486Z,12.25
2022-10-08T01:42:09.106Z,12.25
2022-10-08T01:43:11.235Z,12.22
2022-10-08T01:44:27.023Z,12.22
2022-10-08T01:45:39.255Z,12.17
2022-10-08T01:46:42.367Z,12.17
2022-10-08T01:47:44.604Z,12.13
2022-10-08T01:48:46.159Z,12.13
2022-10-08T01:49:55.931Z,12.13
2022-10-08T01:51:04.375Z,12.07
2022-10-08T01:52:12.727Z,12.05
2022-10-08T01:53:16.067Z,12.10
2022-10-08T01:54:17.807Z,12.05
2022-10-08T01:55:27.430Z,12.06
2022-10-08T01:56:29.896Z,12.06
2022-10-08T01:57:31.845Z,12.05
2022-10-08T01:58:36.773Z,12.00
2022-10-08T01:59:50.697Z,11.95
2022-10-08T02:00:52.535Z,11.93
2022-10-08T02:02:10.738Z,11.93
2022-10-08T02:03:12.372Z,11.97
2022-10-08T02:04:32.521Z,11.99
2022-10-08T02:05:34.349Z,11.97
2022-10-08T02:06:37.243Z,11.97
2022-10-08T02:07:42.635Z,11.97
2022-10-08T02:08:44.189Z,11.99
2022-10-08T02:09:48.452Z,11.95
2022-10-08T02:10:50.151Z,11.95
2022-10-08T02:11:52.403Z,11.96
2022-10-08T02:12:54.053Z,11.95
2022-10-08T02:13:55.734Z,11.92
2022-10-08T02:14:57.450Z,11.92
2022-10-08T02:16:21.295Z,11.87
2022-10-08T02:17:38.356Z,11.86
2022-10-08T02:18:48.062Z,11.87
2022-10-08T02:19:58.007Z,11.86
2022-10-08T02:20:59.957Z,11.87
2022-10-08T02:22:01.666Z,11.89
2022-10-08T02:23:06.731Z,11.90
2022-10-08T02:24:18.624Z,11.89
2022-10-08T02:25:27.758Z,11.90
2022-10-08T02:26:35.026Z,11.89
2022-10-08T02:28:10.744Z,11.87
2022-10-08T02:29:20.832Z,11.83
2022-10-08T02:30:22.404Z,11.83
2022-10-08T02:31:30.180Z,11.85
2022-10-08T02:32:35.613Z,11.81
2022-10-08T02:33:40.991Z,11.76
2022-10-08T02:34:47.414Z,11.71
2022-10-08T02:35:53.117Z,11.69
2022-10-08T02:37:03.866Z,11.68
2022-10-08T02:38:07.568Z,11.68
2022-10-08T02:39:09.248Z,11.64
2022-10-08T02:40:12.038Z,11.61
2022-10-08T02:41:13.608Z,11.59
2022-10-08T02:42:17.244Z,11.66
2022-10-08T02:43:22.094Z,11.64
2022-10-08T02:44:28.308Z,11.68
2022-10-08T02:45:37.303Z,11.71
2022-10-08T02:46:40.475Z,11.68
2022-10-08T02:47:42.065Z,11.68
2022-10-08T02:49:08.586Z,11.68
2022-10-08T02:50:14.288Z,11.71
2022-10-08T02:51:15.969Z,11.68
2022-10-08T02:52:17.563Z,11.66
2022-10-08T02:53:19.161Z,11.65
2022-10-08T02:54:22.764Z,11.59
2022-10-08T02:55:29.994Z,11.62
2022-10-08T02:56:35.932Z,11.59
2022-10-08T02:57:45.988Z,11.62
2022-10-08T02:58:47.552Z,11.61
2022-10-08T02:59:49.120Z,11.61
2022-10-08T03:00:57.362Z,11.55
2022-10-08T03:02:00.655Z,11.58
2022-10-08T03:03:14.841Z,11.57
2022-10-08T03:04:19.026Z,11.55
2022-10-08T03:05:20.661Z,11.58
2022-10-08T03:06:22.308Z,11.51
2022-10-08T03:07:24.294Z,11.54
2022-10-08T03:08:25.848Z,11.57
2022-10-08T03:09:29.216Z,11.58
2022-10-08T03:10:30.952Z,11.52
2022-10-08T03:11:32.752Z,11.57
2022-10-08T03:12:34.434Z,11.55
2022-10-08T03:13:41.825Z,11.55
2022-10-08T03:14:45.698Z,11.54
2022-10-08T03:15:48.771Z,11.48
2022-10-08T03:16:50.448Z,11.45
2022-10-08T03:17:52.046Z,11.51
2022-10-08T03:18:53.671Z,11.51
2022-10-08T03:19:55.277Z,11.51
2022-10-08T03:20:58.289Z,11.55
2022-10-08T03:21:59.961Z,11.54
2022-10-08T03:23:01.827Z,11.52
2022-10-08T03:24:03.374Z,11.54
2022-10-08T03:25:05.281Z,11.57
2022-10-08T03:26:06.844Z,11.55
2022-10-08T03:27:08.470Z,11.55
2022-10-08T03:28:10.085Z,11.55
2022-10-08T03:29:11.687Z,11.57
2022-10-08T03:30:13.566Z,11.57
2022-10-08T03:31:15.199Z,11.57
2022-10-08T03:32:16.863Z,11.51
2022-10-08T03:33:18.811Z,11.51
2022-10-08T03:34:20.365Z,11.51
2022-10-08T03:35:21.911Z,11.50
2022-10-08T03:36:23.722Z,11.48
2022-10-08T03:37:25.357Z,11.52
2022-10-08T03:38:27.073Z,11.50
2022-10-08T03:39:28.619Z,11.51
2022-10-08T03:40:30.169Z,11.48
2022-10-08T03:41:31.807Z,11.48
2022-10-08T03:42:34.458Z,11.41
2022-10-08T03:43:36.167Z,11.36
2022-10-08T03:44:37.714Z,11.36
2022-10-08T03:45:39.255Z,11.36
2022-10-08T03:46:40.816Z,11.32
2022-10-08T03:47:42.468Z,11.35
2022-10-08T03:48:44.097Z,11.36
2022-10-08T03:49:45.681Z,11.35
2022-10-08T03:51:01.240Z,11.36
2022-10-08T03:52:02.844Z,11.34
2022-10-08T03:53:04.474Z,11.35
2022-10-08T03:54:06.055Z,11.34
2022-10-08T03:55:08.179Z,11.34
2022-10-08T03:56:14.714Z,11.38
2022-10-08T03:57:16.265Z,11.35
2022-10-08T03:58:18.145Z,11.38
2022-10-08T03:59:19.842Z,11.36
2022-10-08T04:00:21.440Z,11.35
2022-10-08T04:01:23.551Z,11.36
2022-10-08T04:02:25.178Z,11.39
2022-10-08T04:03:27.062Z,11.35
2022-10-08T04:04:28.734Z,11.36
2022-10-08T04:05:30.310Z,11.34
2022-10-08T04:06:31.876Z,11.35
2022-10-08T04:07:33.402Z,11.34
2022-10-08T04:08:35.263Z,11.32
2022-10-08T04:09:37.072Z,11.36
2022-10-08T04:10:38.857Z,11.38
2022-10-08T04:11:40.582Z,11.39
2022-10-08T04:12:42.208Z,11.44
2022-10-08T04:13:44.126Z,11.39
2022-10-08T04:14:45.761Z,11.38
2022-10-08T04:15:48.364Z,11.35
2022-10-08T04:16:50.018Z,11.35
2022-10-08T04:17:51.587Z,11.35
2022-10-08T04:18:53.227Z,11.35
2022-10-08T04:19:57.263Z,11.34
2022-10-08T04:20:59.689Z,11.35
2022-10-08T04:22:01.244Z,11.34
2022-10-08T04:23:02.801Z,11.38
2022-10-08T04:24:04.809Z,11.36
2022-10-08T04:25:06.389Z,11.41
2022-10-08T04:26:08.816Z,11.42
2022-10-08T04:27:10.367Z,11.38
2022-10-08T04:28:11.982Z,11.36
2022-10-08T04:29:13.724Z,11.39
2022-10-08T04:30:16.124Z,11.38
2022-10-08T04:31:18.881Z,11.42
2022-10-08T04:32:20.540Z,11.42
2022-10-08T04:33:22.157Z,11.36
2022-10-08T04:34:23.796Z,11.38
2022-10-08T04:35:25.422Z,11.38
2022-10-08T04:36:27.031Z,11.39
2022-10-08T04:37:28.989Z,11.38
2022-10-08T04:38:30.604Z,11.41
2022-10-08T04:39:32.174Z,11.39
2022-10-08T04:40:33.748Z,11.45
2022-10-08T04:41:35.314Z,11.45
2022-10-08T04:42:36.889Z,11.44
2022-10-08T04:43:38.968Z,11.42
2022-10-08T04:44:40.597Z,11.41
2022-10-08T04:45:45.437Z,11.34
2022-10-08T04:46:47.070Z,11.38
2022-10-08T04:47:48.732Z,11.38
2022-10-08T04:48:52.087Z,11.36
2022-10-08T04:49:53.682Z,11.41
2022-10-08T04:50:59.764Z,11.44
2022-10-08T04:52:01.388Z,11.45
2022-10-08T04:53:03.070Z,11.45
2022-10-08T04:54:04.637Z,11.48
2022-10-08T04:55:06.879Z,11.50
2022-10-08T04:56:10.867Z,11.50
2022-10-08T04:57:12.451Z,11.46
2022-10-08T04:58:14.009Z,11.44
2022-10-08T04:59:15.598Z,11.38
2022-10-08T05:00:18.813Z,11.35
2022-10-08T05:01:21.032Z,11.34
2022-10-08T05:02:22.661Z,11.32
2022-10-08T05:03:24.301Z,11.34
2022-10-08T05:04:25.909Z,11.35
2022-10-08T05:05:27.554Z,11.31
2022-10-08T05:06:30.228Z,11.32
2022-10-08T05:07:31.805Z,11.34
2022-10-08T05:08:33.542Z,11.34
2022-10-08T05:09:35.101Z,11.36
2022-10-08T05:10:36.738Z,11.35
2022-10-08T05:11:38.357Z,11.35
2022-10-08T05:12:40.043Z,11.38
2022-10-08T05:13:41.731Z,11.35
2022-10-08T05:14:43.298Z,11.38
2022-10-08T05:15:44.993Z,11.36
2022-10-08T05:16:46.566Z,11.34
2022-10-08T05:17:48.144Z,11.36
2022-10-08T05:18:51.759Z,11.31
2022-10-08T05:19:53.306Z,11.32
2022-10-08T05:20:54.927Z,11.30
2022-10-08T05:21:56.481Z,11.31
2022-10-08T05:22:58.062Z,11.27
2022-10-08T05:24:01.629Z,11.30
2022-10-08T05:25:03.252Z,11.31
2022-10-08T05:26:31.866Z,11.27
2022-10-08T05:27:42.731Z,11.27
2022-10-08T05:28:44.819Z,11.27
2022-10-08T05:29:46.441Z,11.28
2022-10-08T05:30:48.096Z,11.27
2022-10-08T05:31:51.350Z,11.30
2022-10-08T05:32:52.886Z,11.30
2022-10-08T05:33:54.455Z,11.32
2022-10-08T05:34:56.000Z,11.34
2022-10-08T05:35:57.644Z,11.36
2022-10-08T05:36:59.253Z,11.41
2022-10-08T05:38:00.799Z,11.46
2022-10-08T05:39:04.053Z,11.52
2022-10-08T05:40:06.010Z,11.71
2022-10-08T05:41:12.770Z,11.92
2022-10-08T05:42:14.402Z,12.03
2022-10-08T05:43:15.999Z,12.16
2022-10-08T05:44:17.581Z,12.29
2022-10-08T05:45:19.259Z,12.41
2022-10-08T05:46:21.481Z,12.54
2022-10-08T05:47:23.148Z,12.61
2022-10-08T05:48:24.737Z,12.58
2022-10-08T05:49:26.320Z,12.63
2022-10-08T05:50:27.865Z,12.68
2022-10-08T05:51:29.618Z,12.69
2022-10-08T05:52:31.183Z,12.71
2022-10-08T05:53:35.259Z,12.74
2022-10-08T05:54:36.829Z,12.76
2022-10-08T05:55:38.380Z,12.77
2022-10-08T05:56:40.004Z,12.76
2022-10-08T05:57:41.604Z,12.77
2022-10-08T05:58:43.321Z,12.77
2022-10-08T05:59:44.907Z,12.73
2022-10-08T06:00:57.072Z,12.71
2022-10-08T06:01:58.679Z,12.73
2022-10-08T06:03:00.308Z,12.69
2022-10-08T06:04:08.516Z,12.73
2022-10-08T06:05:10.737Z,12.73
2022-10-08T06:06:12.759Z,12.74
2022-10-08T06:07:14.338Z,12.76
2022-10-08T06:08:15.886Z,12.80
2022-10-08T06:09:18.634Z,12.83
2022-10-08T06:10:20.235Z,12.88
2022-10-08T06:11:21.989Z,12.92
2022-10-08T06:12:23.745Z,12.95
2022-10-08T06:13:25.842Z,12.97
2022-10-08T06:14:27.810Z,13.02
2022-10-08T06:15:29.390Z,13.08
2022-10-08T06:16:31.072Z,13.12
2022-10-08T06:17:32.673Z,13.19
2022-10-08T06:18:36.350Z,13.23
2022-10-08T06:19:37.912Z,13.28
2022-10-08T06:20:39.505Z,13.36
2022-10-08T06:21:41.139Z,13.38
2022-10-08T06:22:42.745Z,13.39
2022-10-08T06:24:04.711Z,13.49
2022-10-08T06:25:06.896Z,13.56
2022-10-08T06:26:09.218Z,13.60
2022-10-08T06:27:10.776Z,13.67
2022-10-08T06:28:12.678Z,13.69
2022-10-08T06:29:16.308Z,13.76
2022-10-08T06:30:17.925Z,13.86
2022-10-08T06:31:19.628Z,13.90
2022-10-08T06:32:21.256Z,13.93
2022-10-08T06:33:22.906Z,13.99
2022-10-08T06:34:24.573Z,14.00
2022-10-08T06:35:26.178Z,14.04
2022-10-08T06:36:28.139Z,14.01
2022-10-08T06:37:29.723Z,14.07
2022-10-08T06:38:31.357Z,14.10
2022-10-08T06:39:32.943Z,14.16
2022-10-08T06:40:39.143Z,14.18
2022-10-08T06:41:40.796Z,14.18
2022-10-08T06:42:42.367Z,14.25
2022-10-08T06:43:44.021Z,14.30
2022-10-08T06:44:45.587Z,14.31
2022-10-08T06:45:47.199Z,14.37
2022-10-08T06:46:48.930Z,14.40
2022-10-08T06:47:50.567Z,14.41
2022-10-08T06:48:52.213Z,14.45
2022-10-08T06:49:53.775Z,14.52
2022-10-08T06:51:05.755Z,14.54
2022-10-08T06:52:07.385Z,14.58
2022-10-08T06:53:09.877Z,14.58
2022-10-08T06:54:11.506Z,14.61
2022-10-08T06:55:13.063Z,14.62
2022-10-08T06:56:15.563Z,14.68
2022-10-08T06:57:17.184Z,14.71
2022-10-08T06:58:18.797Z,14.75
2022-10-08T06:59:20.331Z,14.75
2022-10-08T07:00:21.962Z,14.79
2022-10-08T07:01:28.995Z,14.85
2022-10-08T07:02:33.613Z,14.92
2022-10-08T07:03:35.494Z,14.93
2022-10-08T07:04:37.329Z,14.92
2022-10-08T07:05:39.126Z,14.98
2022-10-08T07:06:40.756Z,15.00
2022-10-08T07:07:42.374Z,15.03
2022-10-08T07:08:43.958Z,15.06
2022-10-08T07:09:45.589Z,15.12
2022-10-08T07:10:47.340Z,15.13
2022-10-08T07:11:48.973Z,15.13
2022-10-08T07:12:50.989Z,15.22
2022-10-08T07:13:53.743Z,15.26
2022-10-08T07:14:55.388Z,15.30
2022-10-08T07:16:10.881Z,15.27
2022-10-08T07:17:12.500Z,15.33
2022-10-08T07:18:14.101Z,15.35
2022-10-08T07:19:15.717Z,15.36
2022-10-08T07:20:17.379Z,15.35
2022-10-08T07:21:19.901Z,15.42
2022-10-08T07:22:21.513Z,15.44
2022-10-08T07:23:23.092Z,15.44
2022-10-08T07:24:24.713Z,15.43
2022-10-08T07:25:26.260Z,15.42
2022-10-08T07:26:29.981Z,15.46
2022-10-08T07:27:31.533Z,15.50
2022-10-08T07:28:34.965Z,15.53
2022-10-08T07:29:36.712Z,15.56
2022-10-08T07:30:38.328Z,15.51
2022-10-08T07:31:40.191Z,15.54
2022-10-08T07:32:41.775Z,15.57
2022-10-08T07:33:43.366Z,15.51
2022-10-08T07:34:45.032Z,15.60
2022-10-08T07:35:47.132Z,15.63
2022-10-08T07:36:48.694Z,15.58
2022-10-08T07:37:50.255Z,15.61
2022-10-08T07:38:55.655Z,15.67
2022-10-08T07:39:57.244Z,15.67
2022-10-08T07:40:58.804Z,15.71
2022-10-08T07:42:00.386Z,15.73
2022-10-08T07:43:02.355Z,15.73
2022-10-08T07:44:04.249Z,15.76
2022-10-08T07:45:06.217Z,15.77
2022-10-08T07:46:08.582Z,15.77
2022-10-08T07:47:10.267Z,15.78
2022-10-08T07:48:12.128Z,15.81
2022-10-08T07:49:13.987Z,15.83
2022-10-08T07:50:15.618Z,15.86
2022-10-08T07:51:19.436Z,15.87
2022-10-08T07:52:21.111Z,15.90
2022-10-08T07:53:22.687Z,15.90
2022-10-08T07:54:24.282Z,15.95
2022-10-08T07:55:26.078Z,15.98
2022-10-08T07:56:27.741Z,16.01
2022-10-08T07:57:29.295Z,16.05
2022-10-08T07:58:30.933Z,16.04
2022-10-08T07:59:32.817Z,16.05
2022-10-08T08:00:34.415Z,16.02
2022-10-08T08:01:36.164Z,16.07
2022-10-08T08:02:37.768Z,16.07
2022-10-08T08:03:39.447Z,16.09
2022-10-08T08:04:41.011Z,16.12
2022-10-08T08:05:42.601Z,16.12
2022-10-08T08:06:47.831Z,16.09
2022-10-08T08:07:53.135Z,16.09
2022-10-08T08:08:54.971Z,16.12
2022-10-08T08:09:56.569Z,16.17
2022-10-08T08:10:59.209Z,16.17
2022-10-08T08:12:00.810Z,16.21
2022-10-08T08:13:02.346Z,16.25
2022-10-08T08:14:03.955Z,16.22
2022-10-08T08:15:05.973Z,16.22
2022-10-08T08:16:13.119Z,16.22
2022-10-08T08:17:14.714Z,16.26
2022-10-08T08:18:16.259Z,16.28
2022-10-08T08:19:17.847Z,16.30
2022-10-08T08:20:19.394Z,16.35
2022-10-08T08:21:23.079Z,16.36
2022-10-08T08:22:24.681Z,16.39
2022-10-08T08:23:33.493Z,16.44
2022-10-08T08:24:35.068Z,16.45
2022-10-08T08:25:36.701Z,16.49
2022-10-08T08:26:39.276Z,16.51
2022-10-08T08:27:40.832Z,16.51
2022-10-08T08:28:42.515Z,16.53
2022-10-08T08:29:44.258Z,16.52
2022-10-08T08:30:45.802Z,16.53
2022-10-08T08:31:48.630Z,16.52
2022-10-08T08:32:50.517Z,16.49
2022-10-08T08:33:54.123Z,16.55
2022-10-08T08:34:55.709Z,16.53
2022-10-08T08:35:57.302Z,16.60
2022-10-08T08:36:59.248Z,16.62
2022-10-08T08:38:00.838Z,16.63
2022-10-08T08:39:02.423Z,16.65
2022-10-08T08:40:04.194Z,16.63
2022-10-08T08:41:23.452Z,16.60
2022-10-08T08:42:39.418Z,16.63
2022-10-08T08:43:41.025Z,16.65
2022-10-08T08:44:44.805Z,16.70
2022-10-08T08:45:47.714Z,16.65
2022-10-08T08:46:54.388Z,16.65
2022-10-08T08:48:26.915Z,16.63
2022-10-08T08:50:06.729Z,16.63
2022-10-08T08:51:08.340Z,16.62
2022-10-08T08:52:11.128Z,16.66
2022-10-08T08:53:12.863Z,16.68
2022-10-08T08:54:14.655Z,16.73
2022-10-08T08:55:17.900Z,16.73
2022-10-08T08:56:19.876Z,16.79
2022-10-08T08:57:48.269Z,16.80
2022-10-08T08:59:22.525Z,16.89
2022-10-08T09:00:26.217Z,16.89
2022-10-08T09:01:36.295Z,16.89
2022-10-08T09:02:40.651Z,16.86
2022-10-08T09:03:51.179Z,16.86
2022-10-08T09:04:55.716Z,16.84
2022-10-08T09:05:58.659Z,16.84
2022-10-08T09:07:02.132Z,16.83
2022-10-08T09:08:16.003Z,16.87
2022-10-08T09:09:39.854Z,16.90
2022-10-08T09:10:46.041Z,16.97
2022-10-08T09:11:47.844Z,17.00
2022-10-08T09:12:50.980Z,17.04
2022-10-08T09:14:03.688Z,17.06
2022-10-08T09:15:06.736Z,17.00
2022-10-08T09:16:14.127Z,17.04
2022-10-08T09:17:18.993Z,17.04
2022-10-08T09:18:20.557Z,17.06
2022-10-08T09:19:22.166Z,17.11
2022-10-08T09:20:24.489Z,17.09
2022-10-08T09:21:26.055Z,17.14
2022-10-08T09:22:32.509Z,17.20
2022-10-08T09:23:34.497Z,17.24
2022-10-08T09:24:36.045Z,17.30
2022-10-08T09:25:37.633Z,17.31
2022-10-08T09:26:39.235Z,17.37
2022-10-08T09:27:44.388Z,17.40
2022-10-08T09:28:47.746Z,17.40
2022-10-08T09:29:49.384Z,17.41
2022-10-08T09:30:50.997Z,17.38
2022-10-08T09:31:52.681Z,17.37
2022-10-08T09:32:58.912Z,17.35
2022-10-08T09:34:05.903Z,17.37
2022-10-08T09:35:07.999Z,17.43
2022-10-08T09:36:09.590Z,17.41
2022-10-08T09:37:23.220Z,17.37
2022-10-08T09:38:28.595Z,17.38
2022-10-08T09:39:34.902Z,17.40
2022-10-08T09:40:36.464Z,17.41
2022-10-08T09:41:38.028Z,17.43
2022-10-08T09:42:39.805Z,17.48
2022-10-08T09:43:41.514Z,17.52
2022-10-08T09:44:50.012Z,17.57
2022-10-08T09:45:51.704Z,17.62
2022-10-08T09:47:04.647Z,17.68
2022-10-08T09:48:13.142Z,17.71
2022-10-08T09:49:40.845Z,17.74
2022-10-08T09:51:11.668Z,17.78
2022-10-08T09:52:23.868Z,17.82
2022-10-08T09:53:46.260Z,17.84
2022-10-08T09:54:50.188Z,17.85
2022-10-08T09:55:54.644Z,17.85
2022-10-08T09:56:58.450Z,17.85
2022-10-08T09:58:00.617Z,17.88
2022-10-08T09:59:03.704Z,17.86
2022-10-08T10:00:06.227Z,17.89
2022-10-08T10:01:14.989Z,17.92
2022-10-08T10:02:39.934Z,17.95
2022-10-08T10:03:54.476Z,17.95
2022-10-08T10:04:56.086Z,17.94
2022-10-08T10:05:59.078Z,17.99
2022-10-08T10:07:00.651Z,18.01
2022-10-08T10:08:02.386Z,18.05
2022-10-08T10:09:13.803Z,18.13
2022-10-08T10:10:20.222Z,18.19
2022-10-08T10:11:36.600Z,18.22
2022-10-08T10:12:39.365Z,18.23
2022-10-08T10:13:41.058Z,18.26
2022-10-08T10:14:49.187Z,18.32
2022-10-08T10:15:56.394Z,18.33
2022-10-08T10:17:17.793Z,18.28
2022-10-08T10:18:25.234Z,18.33
2022-10-08T10:19:49.608Z,18.42
2022-10-08T10:20:57.660Z,18.47
2022-10-08T10:22:24.474Z,18.46
2022-10-08T10:23:33.972Z,18.53
2022-10-08T10:24:48.428Z,18.50
2022-10-08T10:25:50.494Z,18.49
2022-10-08T10:26:52.467Z,18.54
2022-10-08T10:27:56.728Z,18.50
2022-10-08T10:29:00.837Z,18.53
2022-10-08T10:30:22.391Z,18.56
2022-10-08T10:31:43.624Z,18.59
2022-10-08T10:32:58.670Z,18.60
2022-10-08T10:34:26.196Z,18.66
2022-10-08T10:35:29.216Z,18.78
2022-10-08T10:36:35.512Z,18.83
2022-10-08T10:37:41.742Z,18.91
2022-10-08T10:38:47.944Z,18.96
2022-10-08T10:39:59.867Z,18.97
2022-10-08T10:41:03.855Z,18.96
2022-10-08T10:42:34.507Z,19.01
2022-10-08T10:43:45.212Z,18.98
2022-10-08T10:45:14.958Z,18.96
2022-10-08T10:46:28.273Z,19.00
2022-10-08T10:47:32.166Z,19.04
2022-10-08T10:48:34.045Z,19.06
2022-10-08T10:49:38.369Z,19.04
2022-10-08T10:50:58.694Z,19.03
2022-10-08T10:52:33.835Z,19.04
2022-10-08T10:54:07.342Z,19.10
2022-10-08T10:55:27.606Z,19.10
2022-10-08T10:56:31.712Z,19.15
2022-10-08T10:57:56.370Z,19.12
2022-10-08T10:59:10.253Z,19.07
2022-10-08T11:00:17.548Z,19.03
2022-10-08T11:01:28.430Z,19.03
2022-10-08T11:02:34.891Z,19.07
2022-10-08T11:03:42.976Z,19.10
2022-10-08T11:05:11.637Z,19.11
2022-10-08T11:06:48.213Z,19.11
2022-10-08T11:08:11.769Z,19.18
2022-10-08T11:09:27.745Z,19.22
2022-10-08T11:10:53.544Z,19.24
2022-10-08T11:11:58.191Z,19.32
2022-10-08T11:13:18.021Z,19.35
2022-10-08T11:14:31.668Z,19.39
2022-10-08T11:15:51.358Z,19.42
2022-10-08T11:16:59.393Z,19.42
2022-10-08T11:18:09.577Z,19.42
2022-10-08T11:19:40.518Z,19.42
2022-10-08T11:20:45.064Z,19.45
2022-10-08T11:22:15.611Z,19.48
2022-10-08T11:23:51.159Z,19.47
2022-10-08T11:24:55.648Z,19.48
2022-10-08T11:26:20.849Z,19.48
2022-10-08T11:28:21.525Z,19.55
2022-10-08T11:29:31.873Z,19.57
2022-10-08T11:30:47.221Z,19.58
2022-10-08T11:31:49.731Z,19.63
2022-10-08T11:32:55.369Z,19.61
2022-10-08T11:33:56.993Z,19.62
2022-10-08T11:35:05.425Z,19.59
2022-10-08T11:36:11.463Z,19.58
2022-10-08T11:37:35.806Z,19.58
2022-10-08T11:38:43.024Z,19.55
2022-10-08T11:39:53.176Z,19.54
2022-10-08T11:41:06.871Z,19.51
2022-10-08T11:42:30.223Z,19.51
2022-10-08T11:43:55.678Z,19.54
2022-10-08T11:45:24.868Z,19.55
2022-10-08T11:46:31.534Z,19.58
2022-10-08T11:47:42.305Z,19.59
2022-10-08T11:48:43.936Z,19.59
2022-10-08T11:49:50.109Z,19.63
2022-10-08T11:50:51.799Z,19.62
2022-10-08T11:51:53.777Z,19.63
2022-10-08T11:53:10.328Z,19.62
2022-10-08T11:54:34.686Z,19.63
2022-10-08T11:55:36.680Z,19.63
2022-10-08T11:56:40.327Z,19.68
2022-10-08T11:58:06.590Z,19.70
2022-10-08T11:59:34.563Z,19.70
2022-10-08T12:00:39.910Z,19.72
2022-10-08T12:01:55.275Z,19.76
2022-10-08T12:02:56.967Z,19.78
2022-10-08T12:04:20.786Z,19.76
2022-10-08T12:05:22.288Z,19.79
2022-10-08T12:06:26.088Z,19.80
2022-10-08T12:07:35.583Z,19.79
2022-10-08T12:08:56.644Z,19.78
2022-10-08T12:10:07.376Z,19.80
2022-10-08T12:11:37.606Z,19.82
2022-10-08T12:12:51.835Z,19.83
2022-10-08T12:14:14.651Z,19.86
2022-10-08T12:15:39.100Z,19.86
2022-10-08T12:16:55.946Z,19.87
2022-10-08T12:17:59.354Z,19.90
2022-10-08T12:19:00.894Z,19.86
2022-10-08T12:20:19.079Z,19.86
2022-10-08T12:21:20.732Z,19.86
2022-10-08T12:22:25.442Z,19.85
2022-10-08T12:23:30.175Z,19.82
2022-10-08T12:24:37.525Z,19.79
2022-10-08T12:25:44.975Z,19.78
2022-10-08T12:27:25.235Z,19.75
2022-10-08T12:28:30.156Z,19.70
2022-10-08T12:30:09.693Z,19.72
2022-10-08T12:31:28.069Z,19.63
2022-10-08T12:32:41.825Z,19.61
2022-10-08T12:33:43.459Z,19.59
2022-10-08T12:34:45.009Z,19.58
2022-10-08T12:36:10.771Z,19.59
2022-10-08T12:37:21.638Z,19.61
2022-10-08T12:38:53.998Z,19.65
2022-10-08T12:39:55.567Z,19.65
2022-10-08T12:41:23.052Z,19.63
2022-10-08T12:42:26.963Z,19.62
2022-10-08T12:44:00.560Z,19.63
2022-10-08T12:45:26.444Z,19.66
2022-10-08T12:47:03.295Z,19.66
2022-10-08T12:48:06.276Z,19.65
2022-10-08T12:49:31.866Z,19.59
2022-10-08T12:50:39.829Z,19.58
2022-10-08T12:51:45.241Z,19.61
2022-10-08T12:52:46.831Z,19.59
2022-10-08T12:53:48.456Z,19.58
2022-10-08T12:54:51.868Z,19.57
2022-10-08T12:55:55.565Z,19.57
2022-10-08T12:56:57.126Z,19.54
2022-10-08T12:57:58.695Z,19.52
2022-10-08T12:59:02.862Z,19.48
2022-10-08T13:00:09.502Z,19.49
2022-10-08T13:01:11.145Z,19.48
2022-10-08T13:02:44.759Z,19.54
2022-10-08T13:03:46.486Z,19.55
2022-10-08T13:04:48.031Z,19.55
2022-10-08T13:05:49.787Z,19.57
2022-10-08T13:06:52.484Z,19.57
2022-10-08T13:07:54.087Z,19.58
2022-10-08T13:08:55.673Z,19.57
2022-10-08T13:09:58.778Z,19.58
2022-10-08T13:11:02.632Z,19.54
2022-10-08T13:12:05.403Z,19.54
2022-10-08T13:13:07.542Z,19.55
2022-10-08T13:14:28.982Z,19.58
2022-10-08T13:15:31.185Z,19.54
2022-10-08T13:16:45.501Z,19.55
2022-10-08T13:17:47.296Z,19.57
2022-10-08T13:18:53.841Z,19.59
2022-10-08T13:20:07.331Z,19.57
2022-10-08T13:21:36.886Z,19.59
2022-10-08T13:22:38.450Z,19.62
2022-10-08T13:23:39.962Z,19.62
2022-10-08T13:24:42.954Z,19.62
2022-10-08T13:25:44.609Z,19.62
2022-10-08T13:26:52.792Z,19.63
2022-10-08T13:28:16.519Z,19.62
2022-10-08T13:29:21.531Z,19.62
2022-10-08T13:30:32.213Z,19.63
2022-10-08T13:31:33.903Z,19.63
2022-10-08T13:32:38.326Z,19.62
2022-10-08T13:33:39.907Z,19.63
2022-10-08T13:34:43.203Z,19.65
2022-10-08T13:35:49.824Z,19.61
2022-10-08T13:36:53.486Z,19.63
2022-10-08T13:37:55.047Z,19.63
2022-10-08T13:38:56.607Z,19.62
2022-10-08T13:40:02.219Z,19.61
2022-10-08T13:41:06.215Z,19.63
2022-10-08T13:42:14.761Z,19.62
2022-10-08T13:43:16.326Z,19.66
2022-10-08T13:44:17.956Z,19.66
2022-10-08T13:45:20.106Z,19.66
2022-10-08T13:46:21.849Z,19.72
2022-10-08T13:47:23.504Z,19.72
2022-10-08T13:48:25.208Z,19.70
2022-10-08T13:49:28.020Z,19.70
2022-10-08T13:50:29.670Z,19.73
2022-10-08T13:51:31.323Z,19.70
2022-10-08T13:52:33.051Z,19.69
2022-10-08T13:53:34.614Z,19.69
2022-10-08T13:54:40.221Z,19.66
2022-10-08T13:55:44.735Z,19.68
2022-10-08T13:56:46.617Z,19.66
2022-10-08T13:57:48.344Z,19.70
2022-10-08T13:58:50.209Z,19.69
2022-10-08T13:59:51.776Z,19.68
2022-10-08T14:00:54.789Z,19.72
2022-10-08T14:01:56.494Z,19.72
2022-10-08T14:02:58.246Z,19.72
2022-10-08T14:03:59.854Z,19.75
2022-10-08T14:05:01.382Z,19.75
2022-10-08T14:06:02.990Z,19.79
2022-10-08T14:07:04.639Z,19.78
2022-10-08T14:08:15.504Z,19.79
2022-10-08T14:09:19.156Z,19.80
2022-10-08T14:10:20.714Z,19.82
2022-10-08T14:11:22.335Z,19.83